Latest Weather Observations for Archerfield

IDQ60901

Issued at 10:51 am EST Wednesday 29 July 2015 (issued every 10 minutes, with the page automatically refreshed every 10 minutes)

About weather observations | Map of Brisbane area stations | Latest observations for Brisbane area | Other Formats
Station Details ID: 040211 Name: ARCHERFIELD AIRPORT Lat: -27.57 Lon: 153.01 Height: 12.5 m
Data from the previous 72 hours. | See also: Recent months at Archerfield
Date/Time
EST
Tmp

°C
App
Tmp
°C
Dew
Point
°C
Rel
Hum
%
Delta-T

°C
Wind Press
QNH
hPa
Press
MSL
hPa
Rain
since
9 am
mm
Dir
 
Spd
km/h
Gust
km/h
Spd
kts
Gust
kts
29/10:30am 17.2 13.0 5.5 46 5.6 SW 17 20 9 11 1031.9 1031.9 0.0
29/10:00am 16.2 12.6 4.9 47 5.3 SW 13 19 7 10 1032.2 1032.2 0.0
29/09:30am 14.6 10.5 4.3 50 4.8 SW 15 19 8 10 1032.5 1032.5 0.0
29/09:00am 13.6 10.5 5.5 58 3.8 WSW 11 15 6 8 1032.6 1032.6 0.0
29/08:30am 11.3 8.1 5.0 65 2.8 WSW 11 13 6 7 1032.4 1032.4 0.0
29/08:00am 9.7 7.4 4.7 71 2.2 SW 6 9 3 5 1032.4 1032.4 0.0
29/07:30am 7.9 5.4 4.5 79 1.5 SW 7 9 4 5 1032.3 1032.3 0.0
29/07:00am 6.3 3.2 3.5 82 1.2 SSW 9 9 5 5 1032.2 1032.2 0.0
29/06:30am 5.5 1.9 3.0 84 1.0 SSW 11 13 6 7 1031.6 1031.6 0.0
29/06:00am 5.4 2.2 2.9 84 1.0 S 9 11 5 6 1031.3 1031.3 0.0
29/05:30am 5.5 2.4 3.5 87 0.8 SSW 9 11 5 6 1030.9 1030.9 0.0
29/05:00am 5.8 2.6 3.3 84 1.0 S 9 11 5 6 1030.6 1030.6 0.0
29/04:30am 6.1 2.9 3.3 82 1.2 S 9 11 5 6 1030.4 1030.4 0.0
29/04:00am 6.8 4.2 3.1 77 1.5 SSW 6 9 3 5 1030.6 1030.6 0.0
29/03:30am 6.3 3.6 2.6 77 1.5 WSW 6 9 3 5 1030.6 1030.6 0.0
29/03:00am 7.0 4.5 3.6 79 1.4 SW 6 7 3 4 1030.8 1030.8 0.0
29/02:30am 7.1 4.4 3.9 80 1.4 SW 7 11 4 6 1030.8 1030.8 0.0
29/02:00am 7.1 4.8 4.9 86 1.0 SW 6 7 3 4 1030.8 1030.8 0.0
29/01:30am 6.9 5.7 4.7 86 1.0 CALM 0 0 0 0 1030.9 1030.9 0.0
29/01:00am 6.8 5.6 4.6 86 0.9 CALM 0 0 0 0 1031.0 1031.0 0.0
29/12:30am 6.9 5.7 4.6 85 1.0 CALM 0 0 0 0 1031.1 1031.1 0.0
 
Date/Time
EST
Tmp

°C
App
Tmp
°C
Dew
Point
°C
Rel
Hum
%
Delta-T

°C
Wind Press
QNH
hPa
Press
MSL
hPa
Rain
since
9 am
mm
Dir
 
Spd
km/h
Gust
km/h
Spd
kts
Gust
kts
28/11:30pm 7.0 5.5 4.8 86 1.0 SSW 2 6 1 3 1031.0 1031.0 0.0
28/11:00pm 6.4 3.9 3.6 82 1.2 SW 6 9 3 5 1031.1 1031.1 0.0
28/10:30pm 9.1 6.7 5.3 77 1.7 SSW 7 9 4 5 1031.0 1031.0 0.0
28/10:00pm 9.5 7.3 5.5 76 1.8 SW 6 7 3 4 1031.0 1031.0 0.0
28/09:30pm 10.0 7.6 5.2 72 2.2 SSW 7 9 4 5 1030.9 1030.9 0.0
28/09:00pm 11.0 8.5 4.7 65 2.8 S 7 9 4 5 1030.9 1030.9 0.0
28/08:30pm 12.7 9.8 4.4 57 3.8 SSE 9 11 5 6 1030.8 1030.8 0.0
28/08:00pm 13.0 9.3 4.2 55 4.0 SE 13 17 7 9 1030.5 1030.5 0.0
28/07:30pm 13.6 9.5 4.2 53 4.3 SE 15 20 8 11 1030.3 1030.3 0.0
28/07:00pm 14.1 10.0 4.4 52 4.4 SE 15 20 8 11 1029.9 1029.9 0.0
28/06:30pm 15.0 11.4 5.2 52 4.6 ESE 13 19 7 10 1029.5 1029.5 0.0
28/06:00pm 15.5 12.1 5.7 52 4.7 ESE 13 20 7 11 1029.1 1029.1 0.0
28/05:30pm 16.0 11.8 5.6 50 5.0 ESE 17 22 9 12 1028.6 1028.6 0.0
28/05:00pm 17.0 12.3 5.9 48 5.4 ESE 20 30 11 16 1028.4 1028.4 0.0
28/04:30pm 18.0 12.9 6.2 46 5.8 E 22 30 12 16 1028.1 1028.1 0.0
28/04:00pm 19.1 14.9 5.9 42 6.5 ESE 17 26 9 14 1027.9 1027.9 0.0
28/03:30pm 20.6 18.3 5.0 36 7.6 S 6 17 3 9 1027.7 1027.7 0.0
28/03:00pm 20.1 17.3 5.0 37 7.3 S 9 15 5 8 1027.6 1027.6 0.0
28/02:30pm 19.8 16.1 4.7 37 7.3 SSW 13 19 7 10 1027.6 1027.6 0.0
28/02:00pm 20.3 18.0 5.5 38 7.3 SSW 7 17 4 9 1027.8 1027.8 0.0
28/01:30pm 19.8 15.8 5.1 38 7.2 S 15 20 8 11 1028.0 1028.0 0.0
28/01:00pm 20.2 16.8 5.8 39 7.1 S 13 20 7 11 1028.3 1028.3 0.0
28/12:30pm 19.1 15.5 5.2 40 6.8 SE 13 20 7 11 1028.7 1028.7 0.0
28/12:00pm 19.0 15.6 5.8 42 6.4 SSE 13 22 7 12 1029.2 1029.2 0.0
28/11:30am 18.5 15.9 6.0 44 6.2 S 9 19 5 10 1029.5 1029.5 0.0
28/11:00am 17.8 15.7 6.7 48 5.5 SSW 7 17 4 9 1030.1 1030.1 0.0
28/10:30am 17.2 14.0 6.7 50 5.2 SW 13 22 7 12 1030.3 1030.3 0.0
28/10:00am 15.5 11.5 5.1 50 4.9 SSW 15 20 8 11 1030.5 1030.5 0.0
28/09:30am 15.0 11.3 4.7 50 4.8 SW 13 17 7 9 1030.5 1030.5 0.0
28/09:00am 14.0 10.3 4.3 52 4.4 SW 13 17 7 9 1030.4 1030.4 0.0
28/08:30am 12.0 9.5 4.5 60 3.4 SW 7 11 4 6 1030.2 1030.2 0.0
28/08:00am 10.9 7.9 4.1 63 3.0 WSW 9 13 5 7 1029.9 1029.9 0.0
28/07:30am 10.4 7.4 4.1 65 2.8 WSW 9 13 5 7 1029.5 1029.5 0.0
28/07:00am 8.8 5.7 3.6 70 2.2 SW 9 11 5 6 1029.0 1029.0 0.0
28/06:30am 9.0 5.5 3.6 69 2.3 SW 11 15 6 8 1028.8 1028.8 0.0
28/06:00am 9.0 5.9 3.4 68 2.4 SSW 9 11 5 6 1028.5 1028.5 0.0
28/05:30am 8.9 5.4 3.7 70 2.3 SW 11 13 6 7 1028.1 1028.1 0.0
28/05:00am 9.2 6.1 3.4 67 2.5 WSW 9 11 5 6 1028.0 1028.0 0.0
28/04:30am 9.1 5.6 3.5 68 2.4 SW 11 13 6 7 1027.6 1027.6 0.0
28/04:00am 9.6 6.2 4.0 68 2.4 SW 11 15 6 8 1027.5 1027.5 0.0
28/03:30am 9.5 6.1 4.1 69 2.4 SW 11 15 6 8 1027.2 1027.2 0.0
28/03:00am 9.6 7.0 4.2 69 2.4 SW 7 11 4 6 1027.0 1027.0 0.0
28/02:30am 9.6 6.6 4.0 68 2.5 WSW 9 13 5 7 1027.1 1027.1 0.0
28/02:00am 9.8 6.5 4.4 69 2.4 SW 11 15 6 8 1027.0 1027.0 0.0
28/01:30am 10.0 6.7 4.6 69 2.4 SW 11 13 6 7 1027.2 1027.2 0.0
28/01:00am 11.2 8.3 4.7 64 2.9 WSW 9 15 5 8 1027.1 1027.1 0.0
28/12:30am 11.9 7.9 5.1 63 3.1 WSW 15 19 8 10 1026.9 1026.9 0.0
28/12:13am 11.9 8.4 5.3 64 3.0 WSW 13 20 7 11 1026.9 1026.9 0.0
28/12:00am 11.5 8.3 4.9 64 3.0 WSW 11 15 6 8 1026.8 1026.8 0.0
 
Date/Time
EST
Tmp

°C
App
Tmp
°C
Dew
Point
°C
Rel
Hum
%
Delta-T

°C
Wind Press
QNH
hPa
Press
MSL
hPa
Rain
since
9 am
mm
Dir
 
Spd
km/h
Gust
km/h
Spd
kts
Gust
kts
27/11:47pm 11.8 9.0 5.0 63 3.1 SW 9 11 5 6 1026.7 1026.7 0.0
27/11:30pm 12.1 8.1 5.0 62 3.3 WSW 15 19 8 10 1026.5 1026.5 0.0
27/11:24pm 12.7 9.2 5.4 61 3.4 W 13 19 7 10 1026.6 1026.6 0.0
27/11:09pm 12.6 9.8 5.3 61 3.4 WSW 9 11 5 6 1026.9 1026.9 0.0
27/11:00pm 13.0 10.3 5.4 60 3.5 W 9 13 5 7 1027.0 1027.0 0.0
27/10:30pm 13.2 9.4 5.9 61 3.4 W 15 19 8 10 1026.8 1026.8 0.0
27/10:00pm 13.9 9.7 5.8 58 3.8 WNW 17 22 9 12 1026.7 1026.7 0.0
27/09:30pm 14.3 11.0 6.2 58 3.9 W 13 17 7 9 1026.2 1026.2 0.0
27/09:00pm 14.4 10.3 6.3 58 3.9 W 17 20 9 11 1025.9 1025.9 0.0
27/08:30pm 14.2 10.1 6.1 58 3.9 W 17 20 9 11 1025.5 1025.5 0.0
27/08:00pm 14.8 12.2 5.9 55 4.2 WSW 9 13 5 7 1025.3 1025.3 0.0
27/07:30pm 15.2 12.2 6.0 54 4.4 W 11 13 6 7 1025.0 1025.0 0.0
27/07:00pm 15.7 14.8 5.9 52 4.7 CALM 0 0 0 0 1024.7 1024.7 0.0
27/06:30pm 16.9 15.9 5.8 48 5.4 CALM 0 0 0 0 1024.3 1024.3 0.0
27/06:00pm 16.8 14.8 6.3 50 5.1 ESE 6 7 3 4 1023.8 1023.8 0.0
27/05:30pm 17.5 14.1 5.8 46 5.7 WNW 13 19 7 10 1023.3 1023.3 0.0
27/05:00pm 19.0 14.8 5.8 42 6.5 W 17 22 9 12 1023.0 1023.0 0.0
27/04:30pm 20.3 16.9 5.9 39 7.2 W 13 15 7 8 1022.4 1022.4 0.0
27/04:00pm 22.0 18.4 5.0 33 8.4 SW 13 17 7 9 1022.0 1022.0 0.0
27/03:30pm 21.9 17.0 4.0 31 8.7 SSW 19 26 10 14 1021.8 1021.8 0.0
27/03:00pm 22.3 16.6 2.9 28 9.2 SW 22 28 12 15 1021.6 1021.6 0.0
27/02:30pm 22.9 17.9 3.4 28 9.4 SW 19 26 10 14 1021.6 1021.6 0.0
27/02:00pm 22.6 16.3 1.6 25 9.7 WSW 24 32 13 17 1021.5 1021.5 0.0
27/01:30pm 22.2 20.3 6.8 37 7.9 SE 6 13 3 7 1021.6 1021.6 0.0
27/01:00pm 21.4 19.8 6.5 38 7.5 SSE 4 7 2 4 1021.8 1021.8 0.0
27/12:30pm 21.3 18.6 7.2 40 7.2 SW 11 17 6 9 1022.4 1022.4 0.0
27/12:00pm 20.9 16.9 6.8 40 7.1 WSW 17 26 9 14 1022.9 1022.9 0.0
27/11:30am 21.1 16.0 7.7 42 6.9 WSW 24 32 13 17 1023.4 1023.4 0.0
27/11:00am 20.9 17.1 8.9 46 6.3 W 19 28 10 15 1023.9 1023.9 0.0
27/10:30am 20.1 16.0 7.8 45 6.3 W 19 24 10 13 1024.2 1024.2 0.0
27/10:00am 19.3 14.4 7.1 45 6.1 W 22 28 12 15 1024.2 1024.2 0.0
27/09:30am 18.5 14.3 7.6 49 5.5 W 19 22 10 12 1024.4 1024.4 0.0
27/09:00am 17.8 13.1 7.8 52 5.1 W 22 26 12 14 1024.6 1024.6 0.0
27/08:30am 16.7 12.2 8.4 58 4.2 W 22 28 12 15 1024.4 1024.4 0.0
27/08:00am 15.7 11.5 8.4 62 3.7 W 20 26 11 14 1024.1 1024.1 0.0
27/07:30am 14.7 10.8 8.6 67 3.1 W 19 24 10 13 1023.8 1023.8 0.0
27/07:00am 13.7 10.1 8.5 71 2.6 W 17 22 9 12 1023.6 1023.6 0.0
27/06:30am 13.0 9.1 8.7 75 2.2 W 19 22 10 12 1023.5 1023.5 0.0
27/06:00am 12.7 9.2 8.6 76 2.0 W 17 22 9 12 1023.0 1023.0 0.0
27/05:30am 12.9 9.0 8.6 75 2.1 W 19 22 10 12 1022.6 1022.6 0.0
27/05:00am 13.2 9.3 8.5 73 2.3 W 19 22 10 12 1022.2 1022.2 0.0
27/04:30am 13.1 9.5 8.4 73 2.3 W 17 22 9 12 1021.9 1021.9 0.0
27/04:00am 13.6 9.6 8.4 71 2.6 W 19 24 10 13 1021.7 1021.7 0.0
27/03:30am 13.8 9.9 8.6 71 2.6 W 19 22 10 12 1021.7 1021.7 0.0
27/03:00am 13.9 10.4 8.9 72 2.5 W 17 19 9 10 1021.7 1021.7 0.0
27/02:30am 14.3 11.7 9.5 73 2.5 WSW 13 17 7 9 1021.6 1021.6 0.0
27/02:00am 14.6 11.5 10.2 75 2.3 W 17 19 9 10 1021.5 1021.5 0.0
27/01:30am 15.2 12.4 11.2 77 2.1 W 17 20 9 11 1021.5 1021.5 0.0
27/01:00am 15.7 13.3 12.5 81 1.8 W 17 20 9 11 1021.6 1021.6 0.0
27/12:30am 15.6 14.2 13.4 87 1.2 W 13 17 7 9 1021.7 1021.7 0.0
27/12:00am 16.0 15.5 13.7 86 1.3 WSW 9 13 5 7 1021.6 1021.6 0.0
 
Date/Time
EST
Tmp

°C
App
Tmp
°C
Dew
Point
°C
Rel
Hum
%
Delta-T

°C
Wind Press
QNH
hPa
Press
MSL
hPa
Rain
since
9 am
mm
Dir
 
Spd
km/h
Gust
km/h
Spd
kts
Gust
kts
26/11:30pm 16.7 15.6 14.2 85 1.4 SSW 13 19 7 10 1021.5 1021.5 0.0
26/11:00pm 16.7 15.8 13.8 83 1.6 SW 11 13 6 7 1021.5 1021.5 0.0
26/10:30pm 17.4 16.2 13.9 80 2.0 WNW 13 17 7 9 1021.4 1021.4 0.0
26/10:00pm 18.2 17.2 14.5 79 2.1 WNW 13 22 7 12 1021.4 1021.4 0.0
26/09:30pm 18.3 17.5 15.0 81 1.9 WNW 13 17 7 9 1021.4 1021.4 0.0
26/09:00pm 18.6 18.2 15.3 81 1.9 WNW 11 15 6 8 1021.1 1021.1 0.0
26/08:30pm 18.7 18.5 15.6 82 1.8 WNW 11 15 6 8 1020.8 1020.8 0.0
26/08:00pm 18.7 18.0 15.4 81 1.9 NW 13 15 7 8 1020.3 1020.3 0.0
26/07:30pm 19.2 18.3 15.9 81 2.0 NW 15 17 8 9 1020.1 1020.1 0.0
26/07:00pm 19.7 19.3 16.2 80 2.1 WNW 13 17 7 9 1019.8 1019.8 0.0
26/06:30pm 19.4 19.3 16.1 81 2.0 NW 11 13 6 7 1019.4 1019.4 0.0
26/06:00pm 19.5 19.3 15.8 79 2.2 NW 11 13 6 7 1019.0 1019.0 0.0
26/05:30pm 20.4 19.9 16.0 76 2.6 WNW 13 17 7 9 1018.4 1018.4 0.0
26/05:00pm 21.7 20.5 16.0 70 3.4 W 17 24 9 13 1018.2 1018.2 0.0
26/04:30pm 22.8 20.8 16.4 67 3.9 W 22 32 12 17 1018.0 1018.0 0.0
26/04:00pm 23.4 22.4 16.7 66 4.1 WSW 17 26 9 14 1018.0 1018.0 0.0
26/03:30pm 23.5 21.1 16.3 64 4.4 W 24 32 13 17 1017.7 1017.7 0.0
26/03:00pm 23.8 21.9 16.8 65 4.3 W 22 32 12 17 1017.7 1017.7 0.0
26/02:30pm 22.9 19.6 16.0 65 4.2 W 28 35 15 19 1017.6 1017.6 0.0
26/02:00pm 23.1 20.5 15.9 64 4.3 W 24 37 13 20 1017.4 1017.4 0.0
26/01:30pm 22.7 20.6 16.3 67 3.9 WSW 22 32 12 17 1017.9 1017.9 0.0
26/01:00pm 23.1 21.1 15.4 62 4.6 W 20 28 11 15 1018.1 1018.1 0.0
26/12:30pm 21.9 21.2 15.3 66 3.9 WSW 13 17 7 9 1018.8 1018.8 0.0
26/12:00pm 21.5 22.0 15.6 69 3.5 SW 7 15 4 8 1019.5 1019.5 0.0
26/11:30am 19.9 18.4 14.3 70 3.2 WSW 15 19 8 10 1020.1 1020.1 0.0
26/11:00am 19.0 18.7 14.3 74 2.7 WSW 9 13 5 7 1020.6 1020.6 0.0

Latest Capital City Observations: Canberra | Sydney | Melbourne | Brisbane | Adelaide | Perth | Hobart | Darwin

Other Formats:

Comma delimited format used in spreadsheet applications
http://www.bom.gov.au/fwo/IDQ60901/IDQ60901.94575.axf

JavaScript Object Notation format (JSON) in row-major order
http://www.bom.gov.au/fwo/IDQ60901/IDQ60901.94575.json